Terminal Aerodrome Forecast
Issued by NWS Boston, MA

Current Version | Previous Version | Text Only | Print | Product List | Glossary On
Versions: 1 2 3 4 5 6 7 8 9 10 11 12 13 14 15 16 17 18 19 20 21 22 23 24 25 26 27 28 29 30 31 32 33 34 35 36 37 38 39 40 41 42 43 44 45 46
000 FTUS41 KBOX 232341 TAFBOS TAF KBOS 232341Z 2400/2506 21015KT P6SM FEW045 FEW250 FM240300 23009KT 3SM BR SCT003 FM240900 VRB03KT 1 1/2SM BR BKN003 FM241200 VRB03KT 2SM BR BKN020 FM241400 VRB03KT 3SM BR BKN035 FM241600 19005KT P6SM BKN090 FM250100 19007KT P6SM BKN010 FM250300 19007KT 5SM BR BKN010=

USA.gov is the U.S. government's official web portal to all federal, state and local government web resources and services.